Diana, New York
Current Conditions -  °F | °C
As of 3:58 PM on Thursday 18 Dec 2014 (Local Time) from KGTB Reporting Station
Overcast Overcast  
Wind Chill: 20°   Ceiling: 1200
Heat Index: 28°   Visibility: 10mi
Dew Point: 22°   Wind: 8mph
Humidity: 80%   Direction: 290°WNW
Pressure: 29.97"   Gusts: NA
Location:  44.1447°N, 75.2952°W
Report Text: KGTB 182058Z AUTO 29007KT 10SM OVC012 M02/M05 A2997 RMK AO2 UPE2000 SLP158 P0000 60000 T10231054
Loading
Personal Weather Stations






























Interactive Weather Map New forecast layout! Learn more

10-Day Weather Forecast

Advertisements
Track Severe Weather on mobile